sensor_id;sensor_type;location;lat;lon;timestamp;temperature;humidity
68189;DHT22;55008;47.514;19.218;2022-09-27T00:01:49;11.21;99.12
68189;DHT22;55008;47.514;19.218;2022-09-27T00:04:18;11.19;99.00
68189;DHT22;55008;47.514;19.218;2022-09-27T00:06:47;11.12;98.99
68189;DHT22;55008;47.514;19.218;2022-09-27T00:09:19;11.14;98.81
68189;DHT22;55008;47.514;19.218;2022-09-27T00:11:47;11.11;98.91
68189;DHT22;55008;47.514;19.218;2022-09-27T00:14:17;11.09;99.30
68189;DHT22;55008;47.514;19.218;2022-09-27T00:16:46;11.09;99.44
68189;DHT22;55008;47.514;19.218;2022-09-27T00:19:18;11.05;99.49
68189;DHT22;55008;47.514;19.218;2022-09-27T00:21:48;11.07;99.49
68189;DHT22;55008;47.514;19.218;2022-09-27T00:24:19;11.11;99.47
68189;DHT22;55008;47.514;19.218;2022-09-27T00:26:52;11.12;99.43
68189;DHT22;55008;47.514;19.218;2022-09-27T00:29:27;11.18;99.32
68189;DHT22;55008;47.514;19.218;2022-09-27T00:32:00;11.23;99.27
68189;DHT22;55008;47.514;19.218;2022-09-27T00:34:33;11.25;99.33
68189;DHT22;55008;47.514;19.218;2022-09-27T00:37:02;11.30;99.37
68189;DHT22;55008;47.514;19.218;2022-09-27T00:39:30;11.29;99.49
68189;DHT22;55008;47.514;19.218;2022-09-27T00:41:59;11.29;99.55
68189;DHT22;55008;47.514;19.218;2022-09-27T00:47:42;11.35;99.52
68189;DHT22;55008;47.514;19.218;2022-09-27T00:50:29;11.36;99.58
68189;DHT22;55008;47.514;19.218;2022-09-27T00:53:07;11.39;99.66
68189;DHT22;55008;47.514;19.218;2022-09-27T00:55:42;11.42;99.80
68189;DHT22;55008;47.514;19.218;2022-09-27T00:58:14;11.44;99.88
68189;DHT22;55008;47.514;19.218;2022-09-27T01:00:50;11.46;99.86
68189;DHT22;55008;47.514;19.218;2022-09-27T01:03:29;11.44;99.78
68189;DHT22;55008;47.514;19.218;2022-09-27T01:06:08;11.44;99.58
68189;DHT22;55008;47.514;19.218;2022-09-27T01:08:38;11.46;99.50
68189;DHT22;55008;47.514;19.218;2022-09-27T01:11:13;11.47;99.40
68189;DHT22;55008;47.514;19.218;2022-09-27T01:13:57;11.44;99.32
68189;DHT22;55008;47.514;19.218;2022-09-27T01:16:36;11.42;99.22
68189;DHT22;55008;47.514;19.218;2022-09-27T01:19:17;11.40;99.24
68189;DHT22;55008;47.514;19.218;2022-09-27T01:21:56;11.39;99.16
68189;DHT22;55008;47.514;19.218;2022-09-27T01:24:53;11.33;99.06
68189;DHT22;55008;47.514;19.218;2022-09-27T01:28:07;11.32;99.02
68189;DHT22;55008;47.514;19.218;2022-09-27T01:30:52;11.30;98.87
68189;DHT22;55008;47.514;19.218;2022-09-27T01:33:34;11.26;98.90
68189;DHT22;55008;47.514;19.218;2022-09-27T01:36:16;11.26;98.99
68189;DHT22;55008;47.514;19.218;2022-09-27T01:38:55;11.23;99.19
68189;DHT22;55008;47.514;19.218;2022-09-27T01:41:32;11.21;99.26
68189;DHT22;55008;47.514;19.218;2022-09-27T01:44:07;11.15;99.19
68189;DHT22;55008;47.514;19.218;2022-09-27T01:46:40;11.12;99.12
68189;DHT22;55008;47.514;19.218;2022-09-27T01:49:14;11.04;98.96
68189;DHT22;55008;47.514;19.218;2022-09-27T01:51:45;11.04;99.15
68189;DHT22;55008;47.514;19.218;2022-09-27T01:54:25;10.95;99.02
68189;DHT22;55008;47.514;19.218;2022-09-27T01:56:59;10.90;98.97
68189;DHT22;55008;47.514;19.218;2022-09-27T01:59:38;10.85;99.03
68189;DHT22;55008;47.514;19.218;2022-09-27T02:02:10;10.75;99.07
68189;DHT22;55008;47.514;19.218;2022-09-27T02:04:42;10.68;98.92
68189;DHT22;55008;47.514;19.218;2022-09-27T02:07:15;10.65;98.92
68189;DHT22;55008;47.514;19.218;2022-09-27T02:09:49;10.59;98.78
68189;DHT22;55008;47.514;19.218;2022-09-27T02:12:24;10.47;98.92
68189;DHT22;55008;47.514;19.218;2022-09-27T02:14:56;10.46;99.06
68189;DHT22;55008;47.514;19.218;2022-09-27T02:17:37;10.33;99.02
68189;DHT22;55008;47.514;19.218;2022-09-27T02:20:13;10.34;99.37
68189;DHT22;55008;47.514;19.218;2022-09-27T02:22:48;10.37;99.73
68189;DHT22;55008;47.514;19.218;2022-09-27T02:25:21;10.32;99.83
68189;DHT22;55008;47.514;19.218;2022-09-27T02:27:56;10.26;99.54
68189;DHT22;55008;47.514;19.218;2022-09-27T02:30:28;10.37;99.64
68189;DHT22;55008;47.514;19.218;2022-09-27T02:32:59;10.36;99.85
68189;DHT22;55008;47.514;19.218;2022-09-27T02:35:31;10.30;99.92
68189;DHT22;55008;47.514;19.218;2022-09-27T02:38:04;10.29;99.90
68189;DHT22;55008;47.514;19.218;2022-09-27T02:40:42;10.25;99.75
68189;DHT22;55008;47.514;19.218;2022-09-27T02:43:23;10.26;99.69
68189;DHT22;55008;47.514;19.218;2022-09-27T02:45:59;10.12;99.33
68189;DHT22;55008;47.514;19.218;2022-09-27T02:48:41;10.06;99.07
68189;DHT22;55008;47.514;19.218;2022-09-27T02:51:24;9.95;98.99
68189;DHT22;55008;47.514;19.218;2022-09-27T02:54:06;9.88;98.82
68189;DHT22;55008;47.514;19.218;2022-09-27T02:56:42;9.75;98.90
68189;DHT22;55008;47.514;19.218;2022-09-27T02:59:19;9.70;99.03
68189;DHT22;55008;47.514;19.218;2022-09-27T03:02:00;9.59;99.09
68189;DHT22;55008;47.514;19.218;2022-09-27T03:04:41;9.54;99.06
68189;DHT22;55008;47.514;19.218;2022-09-27T03:07:14;9.57;99.49
68189;DHT22;55008;47.514;19.218;2022-09-27T03:09:46;9.55;99.85
68189;DHT22;55008;47.514;19.218;2022-09-27T03:12:20;9.55;99.72
68189;DHT22;55008;47.514;19.218;2022-09-27T03:14:53;9.50;99.69
68189;DHT22;55008;47.514;19.218;2022-09-27T03:17:22;9.50;99.64
68189;DHT22;55008;47.514;19.218;2022-09-27T03:19:54;9.48;99.47
68189;DHT22;55008;47.514;19.218;2022-09-27T03:22:26;9.44;99.36
68189;DHT22;55008;47.514;19.218;2022-09-27T03:24:57;9.43;99.40
68189;DHT22;55008;47.514;19.218;2022-09-27T03:27:43;9.43;99.62
68189;DHT22;55008;47.514;19.218;2022-09-27T03:30:13;9.44;99.88
68189;DHT22;55008;47.514;19.218;2022-09-27T03:32:42;9.41;99.99
68189;DHT22;55008;47.514;19.218;2022-09-27T03:35:14;9.47;99.91
68189;DHT22;55008;47.514;19.218;2022-09-27T03:37:47;9.48;99.75
68189;DHT22;55008;47.514;19.218;2022-09-27T03:40:18;9.48;99.80
68189;DHT22;55008;47.514;19.218;2022-09-27T03:42:51;9.50;99.99
68189;DHT22;55008;47.514;19.218;2022-09-27T03:45:25;9.47;99.99
68189;DHT22;55008;47.514;19.218;2022-09-27T03:47:55;9.50;99.99
68189;DHT22;55008;47.514;19.218;2022-09-27T03:50:28;9.48;99.99
68189;DHT22;55008;47.514;19.218;2022-09-27T03:53:09;9.46;99.99
68189;DHT22;55008;47.514;19.218;2022-09-27T03:55:39;9.44;99.99
68189;DHT22;55008;47.514;19.218;2022-09-27T03:58:11;9.41;99.99
68189;DHT22;55008;47.514;19.218;2022-09-27T04:00:39;9.40;99.99
68189;DHT22;55008;47.514;19.218;2022-09-27T04:03:09;9.40;99.99
68189;DHT22;55008;47.514;19.218;2022-09-27T04:05:41;9.40;99.92
68189;DHT22;55008;47.514;19.218;2022-09-27T04:08:12;9.36;99.85
68189;DHT22;55008;47.514;19.218;2022-09-27T04:10:46;9.33;99.77
68189;DHT22;55008;47.514;19.218;2022-09-27T04:13:18;9.27;99.93
68189;DHT22;55008;47.514;19.218;2022-09-27T04:15:52;9.31;99.91
68189;DHT22;55008;47.514;19.218;2022-09-27T04:18:23;9.28;99.86
68189;DHT22;55008;47.514;19.218;2022-09-27T04:20:53;9.27;99.98
68189;DHT22;55008;47.514;19.218;2022-09-27T04:23:27;9.33;99.99
68189;DHT22;55008;47.514;19.218;2022-09-27T04:25:56;9.31;99.99
68189;DHT22;55008;47.514;19.218;2022-09-27T04:28:34;9.37;99.99
68189;DHT22;55008;47.514;19.218;2022-09-27T04:31:09;9.33;99.99
68189;DHT22;55008;47.514;19.218;2022-09-27T04:33:39;9.28;99.99
68189;DHT22;55008;47.514;19.218;2022-09-27T04:36:14;9.31;99.99
68189;DHT22;55008;47.514;19.218;2022-09-27T04:39:01;9.27;99.99
68189;DHT22;55008;47.514;19.218;2022-09-27T04:41:30;9.20;99.99
68189;DHT22;55008;47.514;19.218;2022-09-27T04:44:06;9.27;99.99
68189;DHT22;55008;47.514;19.218;2022-09-27T04:46:35;9.20;99.97
68189;DHT22;55008;47.514;19.218;2022-09-27T04:49:03;9.13;99.73
68189;DHT22;55008;47.514;19.218;2022-09-27T04:51:33;9.06;99.65
68189;DHT22;55008;47.514;19.218;2022-09-27T04:54:04;9.07;99.73
68189;DHT22;55008;47.514;19.218;2022-09-27T04:56:36;9.09;99.47
68189;DHT22;55008;47.514;19.218;2022-09-27T04:59:11;9.07;99.36
68189;DHT22;55008;47.514;19.218;2022-09-27T05:01:39;9.03;99.48
68189;DHT22;55008;47.514;19.218;2022-09-27T05:04:11;9.03;99.63
68189;DHT22;55008;47.514;19.218;2022-09-27T05:06:45;9.03;99.78
68189;DHT22;55008;47.514;19.218;2022-09-27T05:09:13;9.03;99.74
68189;DHT22;55008;47.514;19.218;2022-09-27T05:11:44;9.07;99.74
68189;DHT22;55008;47.514;19.218;2022-09-27T05:14:15;9.16;99.97
68189;DHT22;55008;47.514;19.218;2022-09-27T05:16:45;9.24;99.95
68189;DHT22;55008;47.514;19.218;2022-09-27T05:19:19;9.33;99.97
68189;DHT22;55008;47.514;19.218;2022-09-27T05:21:55;9.46;99.99
68189;DHT22;55008;47.514;19.218;2022-09-27T05:24:28;9.59;99.99
68189;DHT22;55008;47.514;19.218;2022-09-27T05:26:59;9.73;99.99
68189;DHT22;55008;47.514;19.218;2022-09-27T05:29:30;9.85;99.99
68189;DHT22;55008;47.514;19.218;2022-09-27T05:32:04;10.09;99.99
68189;DHT22;55008;47.514;19.218;2022-09-27T05:34:38;10.34;99.99
68189;DHT22;55008;47.514;19.218;2022-09-27T05:37:23;10.46;99.42
68189;DHT22;55008;47.514;19.218;2022-09-27T05:39:53;10.47;98.89
68189;DHT22;55008;47.514;19.218;2022-09-27T05:42:26;10.47;98.50
68189;DHT22;55008;47.514;19.218;2022-09-27T05:44:55;10.49;98.60
68189;DHT22;55008;47.514;19.218;2022-09-27T05:47:27;10.57;98.66
68189;DHT22;55008;47.514;19.218;2022-09-27T05:49:57;10.63;98.66
68189;DHT22;55008;47.514;19.218;2022-09-27T05:52:31;10.70;98.74
68189;DHT22;55008;47.514;19.218;2022-09-27T05:55:01;10.73;98.83
68189;DHT22;55008;47.514;19.218;2022-09-27T05:57:31;10.82;98.92
68189;DHT22;55008;47.514;19.218;2022-09-27T06:00:04;10.92;99.09
68189;DHT22;55008;47.514;19.218;2022-09-27T06:02:34;11.01;99.13
68189;DHT22;55008;47.514;19.218;2022-09-27T06:05:11;11.08;98.93
68189;DHT22;55008;47.514;19.218;2022-09-27T06:07:45;11.12;99.16
68189;DHT22;55008;47.514;19.218;2022-09-27T06:10:17;11.22;99.23
68189;DHT22;55008;47.514;19.218;2022-09-27T06:12:47;11.36;99.22
68189;DHT22;55008;47.514;19.218;2022-09-27T06:15:20;11.52;99.08
68189;DHT22;55008;47.514;19.218;2022-09-27T06:17:48;11.67;98.97
68189;DHT22;55008;47.514;19.218;2022-09-27T06:20:19;11.84;98.52
68189;DHT22;55008;47.514;19.218;2022-09-27T06:23:09;12.08;98.32
68189;DHT22;55008;47.514;19.218;2022-09-27T06:25:41;12.28;97.71
68189;DHT22;55008;47.514;19.218;2022-09-27T06:28:14;12.45;97.28
68189;DHT22;55008;47.514;19.218;2022-09-27T06:30:46;12.52;96.44
68189;DHT22;55008;47.514;19.218;2022-09-27T06:33:26;12.57;95.84
68189;DHT22;55008;47.514;19.218;2022-09-27T06:36:00;12.65;95.88
68189;DHT22;55008;47.514;19.218;2022-09-27T06:38:33;12.76;96.31
68189;DHT22;55008;47.514;19.218;2022-09-27T06:41:03;12.86;95.64
68189;DHT22;55008;47.514;19.218;2022-09-27T06:43:39;12.87;96.24
68189;DHT22;55008;47.514;19.218;2022-09-27T06:46:15;12.82;96.04
68189;DHT22;55008;47.514;19.218;2022-09-27T06:48:44;12.94;96.36
68189;DHT22;55008;47.514;19.218;2022-09-27T06:51:13;13.06;95.13
68189;DHT22;55008;47.514;19.218;2022-09-27T06:53:51;13.24;95.67
68189;DHT22;55008;47.514;19.218;2022-09-27T06:56:23;13.44;95.05
68189;DHT22;55008;47.514;19.218;2022-09-27T06:58:53;13.54;94.97
68189;DHT22;55008;47.514;19.218;2022-09-27T07:01:47;13.59;94.43
68189;DHT22;55008;47.514;19.218;2022-09-27T07:04:26;13.68;94.56
68189;DHT22;55008;47.514;19.218;2022-09-27T07:07:06;13.79;94.51
68189;DHT22;55008;47.514;19.218;2022-09-27T07:09:56;13.92;93.36
68189;DHT22;55008;47.514;19.218;2022-09-27T07:12:37;14.02;93.56
68189;DHT22;55008;47.514;19.218;2022-09-27T07:15:08;14.14;92.99
68189;DHT22;55008;47.514;19.218;2022-09-27T07:17:39;14.40;92.45
68189;DHT22;55008;47.514;19.218;2022-09-27T07:20:08;14.49;92.27
68189;DHT22;55008;47.514;19.218;2022-09-27T07:22:41;14.60;91.08
68189;DHT22;55008;47.514;19.218;2022-09-27T07:25:13;14.79;90.64
68189;DHT22;55008;47.514;19.218;2022-09-27T07:27:52;14.74;91.45
68189;DHT22;55008;47.514;19.218;2022-09-27T07:30:31;14.75;90.89
68189;DHT22;55008;47.514;19.218;2022-09-27T07:33:05;14.84;90.37
68189;DHT22;55008;47.514;19.218;2022-09-27T07:35:39;14.82;91.29
68189;DHT22;55008;47.514;19.218;2022-09-27T07:38:11;14.79;91.79
68189;DHT22;55008;47.514;19.218;2022-09-27T07:40:45;14.86;91.33
68189;DHT22;55008;47.514;19.218;2022-09-27T07:43:24;14.95;91.06
68189;DHT22;55008;47.514;19.218;2022-09-27T07:45:55;15.12;90.13
68189;DHT22;55008;47.514;19.218;2022-09-27T07:48:28;15.34;89.76
68189;DHT22;55008;47.514;19.218;2022-09-27T07:51:00;15.51;88.94
68189;DHT22;55008;47.514;19.218;2022-09-27T07:53:28;15.65;89.04
68189;DHT22;55008;47.514;19.218;2022-09-27T07:56:11;15.73;87.89
68189;DHT22;55008;47.514;19.218;2022-09-27T07:58:47;15.87;87.78
68189;DHT22;55008;47.514;19.218;2022-09-27T08:01:17;15.92;86.84
68189;DHT22;55008;47.514;19.218;2022-09-27T08:03:58;15.98;87.80
68189;DHT22;55008;47.514;19.218;2022-09-27T08:06:56;15.94;87.10
68189;DHT22;55008;47.514;19.218;2022-09-27T08:09:24;15.71;88.47
68189;DHT22;55008;47.514;19.218;2022-09-27T08:11:58;15.82;87.57
68189;DHT22;55008;47.514;19.218;2022-09-27T08:14:32;15.81;89.01
68189;DHT22;55008;47.514;19.218;2022-09-27T08:17:12;16.04;88.29
68189;DHT22;55008;47.514;19.218;2022-09-27T08:19:40;16.18;86.62
68189;DHT22;55008;47.514;19.218;2022-09-27T08:22:13;16.16;86.62
68189;DHT22;55008;47.514;19.218;2022-09-27T08:24:45;16.02;87.13
68189;DHT22;55008;47.514;19.218;2022-09-27T08:27:31;15.94;86.83
68189;DHT22;55008;47.514;19.218;2022-09-27T08:30:05;15.91;87.40
68189;DHT22;55008;47.514;19.218;2022-09-27T08:32:37;15.78;87.35
68189;DHT22;55008;47.514;19.218;2022-09-27T08:35:10;15.44;88.61
68189;DHT22;55008;47.514;19.218;2022-09-27T08:37:43;15.63;88.27
68189;DHT22;55008;47.514;19.218;2022-09-27T08:40:16;15.60;87.60
68189;DHT22;55008;47.514;19.218;2022-09-27T08:42:59;15.65;88.00
68189;DHT22;55008;47.514;19.218;2022-09-27T08:45:35;15.55;87.85
68189;DHT22;55008;47.514;19.218;2022-09-27T08:48:12;15.46;88.27
68189;DHT22;55008;47.514;19.218;2022-09-27T08:50:46;15.44;88.29
68189;DHT22;55008;47.514;19.218;2022-09-27T08:53:21;15.27;88.91
68189;DHT22;55008;47.514;19.218;2022-09-27T08:55:56;15.23;88.98
68189;DHT22;55008;47.514;19.218;2022-09-27T08:58:31;15.18;88.98
68189;DHT22;55008;47.514;19.218;2022-09-27T09:01:09;15.15;89.39
68189;DHT22;55008;47.514;19.218;2022-09-27T09:03:43;15.07;89.90
68189;DHT22;55008;47.514;19.218;2022-09-27T09:06:16;15.16;90.20
68189;DHT22;55008;47.514;19.218;2022-09-27T09:09:07;15.29;89.52
68189;DHT22;55008;47.514;19.218;2022-09-27T09:11:50;15.20;89.78
68189;DHT22;55008;47.514;19.218;2022-09-27T09:15:06;14.99;89.83
68189;DHT22;55008;47.514;19.218;2022-09-27T09:17:56;15.05;90.07
68189;DHT22;55008;47.514;19.218;2022-09-27T09:20:38;15.06;90.07
68189;DHT22;55008;47.514;19.218;2022-09-27T09:26:20;15.30;89.60
68189;DHT22;55008;47.514;19.218;2022-09-27T09:29:12;15.23;89.31
68189;DHT22;55008;47.514;19.218;2022-09-27T09:31:55;15.19;89.76
68189;DHT22;55008;47.514;19.218;2022-09-27T09:34:32;15.16;90.13
68189;DHT22;55008;47.514;19.218;2022-09-27T09:37:08;15.12;90.30
68189;DHT22;55008;47.514;19.218;2022-09-27T09:39:46;15.15;90.57
68189;DHT22;55008;47.514;19.218;2022-09-27T09:42:23;14.98;91.41
68189;DHT22;55008;47.514;19.218;2022-09-27T09:45:00;15.16;91.57
68189;DHT22;55008;47.514;19.218;2022-09-27T09:47:44;15.16;92.37
68189;DHT22;55008;47.514;19.218;2022-09-27T09:50:19;15.03;92.81
68189;DHT22;55008;47.514;19.218;2022-09-27T09:52:52;15.10;92.97
68189;DHT22;55008;47.514;19.218;2022-09-27T09:55:28;15.26;92.71
68189;DHT22;55008;47.514;19.218;2022-09-27T09:58:04;15.39;92.10
68189;DHT22;55008;47.514;19.218;2022-09-27T10:00:38;15.39;91.81
68189;DHT22;55008;47.514;19.218;2022-09-27T10:03:09;15.23;92.39
68189;DHT22;55008;47.514;19.218;2022-09-27T10:05:58;15.12;92.02
68189;DHT22;55008;47.514;19.218;2022-09-27T10:08:28;14.92;92.42
68189;DHT22;55008;47.514;19.218;2022-09-27T10:10:59;14.78;92.86
68189;DHT22;55008;47.514;19.218;2022-09-27T10:13:32;14.79;92.61
68189;DHT22;55008;47.514;19.218;2022-09-27T10:16:05;14.88;92.63
68189;DHT22;55008;47.514;19.218;2022-09-27T10:18:40;14.85;92.82
68189;DHT22;55008;47.514;19.218;2022-09-27T10:21:20;14.88;93.01
68189;DHT22;55008;47.514;19.218;2022-09-27T10:24:12;14.93;93.15
68189;DHT22;55008;47.514;19.218;2022-09-27T10:26:47;15.19;92.95
68189;DHT22;55008;47.514;19.218;2022-09-27T10:29:23;15.26;92.01
68189;DHT22;55008;47.514;19.218;2022-09-27T10:31:55;15.50;91.33
68189;DHT22;55008;47.514;19.218;2022-09-27T10:34:27;15.34;91.54
68189;DHT22;55008;47.514;19.218;2022-09-27T10:37:05;15.32;91.72
68189;DHT22;55008;47.514;19.218;2022-09-27T10:39:40;15.36;91.12
68189;DHT22;55008;47.514;19.218;2022-09-27T10:42:22;15.26;91.84
68189;DHT22;55008;47.514;19.218;2022-09-27T10:44:52;15.32;91.54
68189;DHT22;55008;47.514;19.218;2022-09-27T10:47:23;15.34;91.70
68189;DHT22;55008;47.514;19.218;2022-09-27T10:50:16;15.22;91.37
68189;DHT22;55008;47.514;19.218;2022-09-27T10:53:12;15.23;91.94
68189;DHT22;55008;47.514;19.218;2022-09-27T10:55:46;15.26;91.64
68189;DHT22;55008;47.514;19.218;2022-09-27T10:58:28;15.20;91.97
68189;DHT22;55008;47.514;19.218;2022-09-27T11:01:04;15.16;91.97
68189;DHT22;55008;47.514;19.218;2022-09-27T11:03:53;15.25;91.56
68189;DHT22;55008;47.514;19.218;2022-09-27T11:06:29;15.18;92.09
68189;DHT22;55008;47.514;19.218;2022-09-27T11:09:17;15.22;91.49
68189;DHT22;55008;47.514;19.218;2022-09-27T11:11:52;15.27;91.11
68189;DHT22;55008;47.514;19.218;2022-09-27T11:14:34;15.34;90.98
68189;DHT22;55008;47.514;19.218;2022-09-27T11:17:13;15.49;90.48
68189;DHT22;55008;47.514;19.218;2022-09-27T11:20:20;15.65;90.58
68189;DHT22;55008;47.514;19.218;2022-09-27T11:23:27;15.82;89.85
68189;DHT22;55008;47.514;19.218;2022-09-27T11:26:12;15.92;89.76
68189;DHT22;55008;47.514;19.218;2022-09-27T11:28:56;15.92;89.33
68189;DHT22;55008;47.514;19.218;2022-09-27T11:31:41;15.97;89.99
68189;DHT22;55008;47.514;19.218;2022-09-27T11:34:31;15.92;89.94
68189;DHT22;55008;47.514;19.218;2022-09-27T11:37:14;15.87;90.01
68189;DHT22;55008;47.514;19.218;2022-09-27T11:40:01;16.05;88.95
68189;DHT22;55008;47.514;19.218;2022-09-27T11:45:53;16.00;89.39
68189;DHT22;55008;47.514;19.218;2022-09-27T11:49:04;15.87;90.18
68189;DHT22;55008;47.514;19.218;2022-09-27T11:51:55;15.78;89.73
68189;DHT22;55008;47.514;19.218;2022-09-27T11:54:38;15.88;89.58
68189;DHT22;55008;47.514;19.218;2022-09-27T11:57:30;15.71;90.32
68189;DHT22;55008;47.514;19.218;2022-09-27T12:00:14;15.71;90.79
68189;DHT22;55008;47.514;19.218;2022-09-27T12:03:13;15.71;91.10
68189;DHT22;55008;47.514;19.218;2022-09-27T12:05:55;15.68;91.29
68189;DHT22;55008;47.514;19.218;2022-09-27T12:08:56;15.60;91.30
68189;DHT22;55008;47.514;19.218;2022-09-27T12:11:37;15.60;91.19
68189;DHT22;55008;47.514;19.218;2022-09-27T12:14:19;15.60;91.47
68189;DHT22;55008;47.514;19.218;2022-09-27T12:16:55;15.70;91.49
68189;DHT22;55008;47.514;19.218;2022-09-27T12:19:32;15.73;91.50
68189;DHT22;55008;47.514;19.218;2022-09-27T12:22:06;15.71;91.66
68189;DHT22;55008;47.514;19.218;2022-09-27T12:24:36;15.75;91.78
68189;DHT22;55008;47.514;19.218;2022-09-27T12:27:16;15.84;92.62
68189;DHT22;55008;47.514;19.218;2022-09-27T12:29:54;15.94;92.21
68189;DHT22;55008;47.514;19.218;2022-09-27T12:32:33;15.98;91.88
68189;DHT22;55008;47.514;19.218;2022-09-27T12:35:12;16.06;91.23
68189;DHT22;55008;47.514;19.218;2022-09-27T12:37:50;16.26;91.39
68189;DHT22;55008;47.514;19.218;2022-09-27T12:40:24;16.34;90.22
68189;DHT22;55008;47.514;19.218;2022-09-27T12:42:53;16.30;90.44
68189;DHT22;55008;47.514;19.218;2022-09-27T12:45:39;16.26;90.43
68189;DHT22;55008;47.514;19.218;2022-09-27T12:48:19;16.33;90.38
68189;DHT22;55008;47.514;19.218;2022-09-27T12:51:02;16.23;89.43
68189;DHT22;55008;47.514;19.218;2022-09-27T12:53:46;16.18;90.79
68189;DHT22;55008;47.514;19.218;2022-09-27T12:56:34;16.23;90.39
68189;DHT22;55008;47.514;19.218;2022-09-27T12:59:21;16.32;90.08
68189;DHT22;55008;47.514;19.218;2022-09-27T13:02:19;16.49;89.50
68189;DHT22;55008;47.514;19.218;2022-09-27T13:05:03;17.25;87.57
68189;DHT22;55008;47.514;19.218;2022-09-27T13:07:46;17.42;86.43
68189;DHT22;55008;47.514;19.218;2022-09-27T13:10:32;17.61;86.01
68189;DHT22;55008;47.514;19.218;2022-09-27T13:13:03;17.40;86.85
68189;DHT22;55008;47.514;19.218;2022-09-27T13:15:35;17.39;86.52
68189;DHT22;55008;47.514;19.218;2022-09-27T13:18:29;17.31;85.60
68189;DHT22;55008;47.514;19.218;2022-09-27T13:21:00;17.43;86.57
68189;DHT22;55008;47.514;19.218;2022-09-27T13:23:58;17.39;86.16
68189;DHT22;55008;47.514;19.218;2022-09-27T13:26:49;17.46;86.31
68189;DHT22;55008;47.514;19.218;2022-09-27T13:29:30;17.53;85.81
68189;DHT22;55008;47.514;19.218;2022-09-27T13:32:02;17.70;85.69
68189;DHT22;55008;47.514;19.218;2022-09-27T13:34:41;17.98;84.10
68189;DHT22;55008;47.514;19.218;2022-09-27T13:37:35;18.13;83.04
68189;DHT22;55008;47.514;19.218;2022-09-27T13:40:28;18.13;83.70
68189;DHT22;55008;47.514;19.218;2022-09-27T13:43:17;17.91;83.75
68189;DHT22;55008;47.514;19.218;2022-09-27T13:45:54;17.73;84.38
68189;DHT22;55008;47.514;19.218;2022-09-27T13:48:27;17.62;85.60
68189;DHT22;55008;47.514;19.218;2022-09-27T13:51:16;17.59;85.48
68189;DHT22;55008;47.514;19.218;2022-09-27T13:53:56;17.50;85.98
68189;DHT22;55008;47.514;19.218;2022-09-27T13:56:51;17.66;86.01
68189;DHT22;55008;47.514;19.218;2022-09-27T13:59:30;17.52;85.60
68189;DHT22;55008;47.514;19.218;2022-09-27T14:02:10;17.45;86.13
68189;DHT22;55008;47.514;19.218;2022-09-27T14:04:46;17.31;87.14
68189;DHT22;55008;47.514;19.218;2022-09-27T14:07:21;17.49;86.16
68189;DHT22;55008;47.514;19.218;2022-09-27T14:09:54;17.45;86.43
68189;DHT22;55008;47.514;19.218;2022-09-27T14:12:28;17.45;85.18
68189;DHT22;55008;47.514;19.218;2022-09-27T14:15:01;17.34;84.24
68189;DHT22;55008;47.514;19.218;2022-09-27T14:17:33;17.25;85.36
68189;DHT22;55008;47.514;19.218;2022-09-27T14:20:02;17.19;84.77
68189;DHT22;55008;47.514;19.218;2022-09-27T14:22:35;17.12;83.83
68189;DHT22;55008;47.514;19.218;2022-09-27T14:25:15;17.12;83.26
68189;DHT22;55008;47.514;19.218;2022-09-27T14:27:49;17.11;83.38
68189;DHT22;55008;47.514;19.218;2022-09-27T14:30:19;17.08;83.92
68189;DHT22;55008;47.514;19.218;2022-09-27T14:32:57;17.11;84.01
68189;DHT22;55008;47.514;19.218;2022-09-27T14:35:33;16.84;81.49
68189;DHT22;55008;47.514;19.218;2022-09-27T14:38:30;16.16;80.10
68189;DHT22;55008;47.514;19.218;2022-09-27T14:41:08;15.29;85.11
68189;DHT22;55008;47.514;19.218;2022-09-27T14:43:45;14.40;90.74
68189;DHT22;55008;47.514;19.218;2022-09-27T14:46:26;13.78;92.80
68189;DHT22;55008;47.514;19.218;2022-09-27T14:48:57;13.54;93.41
68189;DHT22;55008;47.514;19.218;2022-09-27T14:51:31;13.44;94.24
68189;DHT22;55008;47.514;19.218;2022-09-27T14:54:04;13.35;94.53
68189;DHT22;55008;47.514;19.218;2022-09-27T14:56:39;13.37;95.26
68189;DHT22;55008;47.514;19.218;2022-09-27T14:59:12;13.25;94.83
68189;DHT22;55008;47.514;19.218;2022-09-27T15:01:48;13.17;94.98
68189;DHT22;55008;47.514;19.218;2022-09-27T15:04:27;13.11;95.38
68189;DHT22;55008;47.514;19.218;2022-09-27T15:07:03;13.10;95.96
68189;DHT22;55008;47.514;19.218;2022-09-27T15:09:33;13.10;95.84
68189;DHT22;55008;47.514;19.218;2022-09-27T15:12:09;13.08;95.62
68189;DHT22;55008;47.514;19.218;2022-09-27T15:14:43;13.08;95.43
68189;DHT22;55008;47.514;19.218;2022-09-27T15:17:21;13.10;95.77
68189;DHT22;55008;47.514;19.218;2022-09-27T15:20:16;13.10;95.75
68189;DHT22;55008;47.514;19.218;2022-09-27T15:22:53;13.13;95.77
68189;DHT22;55008;47.514;19.218;2022-09-27T15:25:31;13.18;95.62
68189;DHT22;55008;47.514;19.218;2022-09-27T15:28:15;13.20;95.78
68189;DHT22;55008;47.514;19.218;2022-09-27T15:30:50;13.28;95.24
68189;DHT22;55008;47.514;19.218;2022-09-27T15:33:24;13.24;95.19
68189;DHT22;55008;47.514;19.218;2022-09-27T15:35:56;13.18;95.01
68189;DHT22;55008;47.514;19.218;2022-09-27T15:38:32;13.11;95.59
68189;DHT22;55008;47.514;19.218;2022-09-27T15:41:09;13.03;95.84
68189;DHT22;55008;47.514;19.218;2022-09-27T15:43:46;13.00;95.74
68189;DHT22;55008;47.514;19.218;2022-09-27T15:46:33;12.97;95.97
68189;DHT22;55008;47.514;19.218;2022-09-27T15:49:33;12.92;95.99
68189;DHT22;55008;47.514;19.218;2022-09-27T15:52:06;12.87;96.01
68189;DHT22;55008;47.514;19.218;2022-09-27T15:55:02;12.83;96.07
68189;DHT22;55008;47.514;19.218;2022-09-27T15:57:33;12.75;96.23
68189;DHT22;55008;47.514;19.218;2022-09-27T16:00:12;12.70;96.47
68189;DHT22;55008;47.514;19.218;2022-09-27T16:02:47;12.66;96.73
68189;DHT22;55008;47.514;19.218;2022-09-27T16:05:22;12.65;96.62
68189;DHT22;55008;47.514;19.218;2022-09-27T16:07:53;12.60;96.67
68189;DHT22;55008;47.514;19.218;2022-09-27T16:10:27;12.57;96.92
68189;DHT22;55008;47.514;19.218;2022-09-27T16:13:07;12.50;97.00
68189;DHT22;55008;47.514;19.218;2022-09-27T16:15:37;12.49;97.08
68189;DHT22;55008;47.514;19.218;2022-09-27T16:18:15;12.45;97.33
68189;DHT22;55008;47.514;19.218;2022-09-27T16:20:46;12.46;97.44
68189;DHT22;55008;47.514;19.218;2022-09-27T16:23:23;12.41;97.39
68189;DHT22;55008;47.514;19.218;2022-09-27T16:25:58;12.31;95.35
68189;DHT22;55008;47.514;19.218;2022-09-27T16:28:29;12.20;95.02